sensor_id;sensor_type;location;lat;lon;timestamp;pressure;altitude;pressure_sealevel;temperature;humidity
62103;BME280;48077;48.104;11.702;2023-04-26T00:00:33;95404.38;;;4.34;100.00
62103;BME280;48077;48.104;11.702;2023-04-26T00:07:41;95403.28;;;4.21;100.00
62103;BME280;48077;48.104;11.702;2023-04-26T00:10:05;95389.47;;;4.19;100.00
62103;BME280;48077;48.104;11.702;2023-04-26T00:12:29;95388.66;;;4.19;100.00
62103;BME280;48077;48.104;11.702;2023-04-26T00:14:52;95386.00;;;4.19;100.00
62103;BME280;48077;48.104;11.702;2023-04-26T00:17:15;95389.06;;;4.22;100.00
62103;BME280;48077;48.104;11.702;2023-04-26T00:19:39;95378.47;;;4.16;100.00
62103;BME280;48077;48.104;11.702;2023-04-26T00:22:03;95400.88;;;4.33;100.00
62103;BME280;48077;48.104;11.702;2023-04-26T00:24:27;95380.53;;;4.27;100.00
62103;BME280;48077;48.104;11.702;2023-04-26T00:26:54;95398.25;;;4.33;100.00
62103;BME280;48077;48.104;11.702;2023-04-26T00:29:17;95379.53;;;4.21;100.00
62103;BME280;48077;48.104;11.702;2023-04-26T00:31:41;95374.84;;;4.17;100.00
62103;BME280;48077;48.104;11.702;2023-04-26T00:34:04;95401.28;;;4.30;100.00
62103;BME280;48077;48.104;11.702;2023-04-26T00:36:28;95392.13;;;4.26;100.00
62103;BME280;48077;48.104;11.702;2023-04-26T00:38:51;95387.88;;;4.25;100.00
62103;BME280;48077;48.104;11.702;2023-04-26T00:41:15;95400.69;;;4.35;100.00
62103;BME280;48077;48.104;11.702;2023-04-26T00:43:39;95391.78;;;4.36;100.00
62103;BME280;48077;48.104;11.702;2023-04-26T00:46:03;95402.97;;;4.38;100.00
62103;BME280;48077;48.104;11.702;2023-04-26T00:48:26;95375.44;;;4.19;100.00
62103;BME280;48077;48.104;11.702;2023-04-26T00:50:50;95373.63;;;4.19;100.00
62103;BME280;48077;48.104;11.702;2023-04-26T00:53:15;95380.50;;;4.20;100.00
62103;BME280;48077;48.104;11.702;2023-04-26T00:55:39;95386.63;;;4.21;100.00
62103;BME280;48077;48.104;11.702;2023-04-26T00:58:03;95393.75;;;4.27;100.00
62103;BME280;48077;48.104;11.702;2023-04-26T01:00:26;95400.06;;;4.33;100.00
62103;BME280;48077;48.104;11.702;2023-04-26T01:02:50;95408.81;;;4.33;100.00
62103;BME280;48077;48.104;11.702;2023-04-26T01:05:13;95409.66;;;4.34;100.00
62103;BME280;48077;48.104;11.702;2023-04-26T01:07:37;95382.13;;;4.15;100.00
62103;BME280;48077;48.104;11.702;2023-04-26T01:10:04;95392.91;;;4.20;100.00
62103;BME280;48077;48.104;11.702;2023-04-26T01:12:28;95400.66;;;4.28;100.00
62103;BME280;48077;48.104;11.702;2023-04-26T01:14:51;95400.88;;;4.33;100.00
62103;BME280;48077;48.104;11.702;2023-04-26T01:17:15;95379.13;;;4.24;100.00
62103;BME280;48077;48.104;11.702;2023-04-26T01:19:48;95385.63;;;4.29;100.00
62103;BME280;48077;48.104;11.702;2023-04-26T01:22:12;95402.34;;;4.36;100.00
62103;BME280;48077;48.104;11.702;2023-04-26T01:24:36;95400.47;;;4.30;100.00
62103;BME280;48077;48.104;11.702;2023-04-26T01:26:59;95392.91;;;4.20;100.00
62103;BME280;48077;48.104;11.702;2023-04-26T01:29:23;95410.03;;;4.31;100.00
62103;BME280;48077;48.104;11.702;2023-04-26T01:31:47;95415.72;;;4.28;100.00
62103;BME280;48077;48.104;11.702;2023-04-26T01:34:11;95417.31;;;4.29;100.00
62103;BME280;48077;48.104;11.702;2023-04-26T01:36:34;95413.25;;;4.26;100.00
62103;BME280;48077;48.104;11.702;2023-04-26T01:38:58;95408.16;;;4.24;100.00
62103;BME280;48077;48.104;11.702;2023-04-26T01:41:23;95409.97;;;4.17;100.00
62103;BME280;48077;48.104;11.702;2023-04-26T01:43:46;95411.19;;;4.21;100.00
62103;BME280;48077;48.104;11.702;2023-04-26T01:46:10;95411.56;;;4.18;100.00
62103;BME280;48077;48.104;11.702;2023-04-26T01:48:33;95409.78;;;4.19;100.00
62103;BME280;48077;48.104;11.702;2023-04-26T01:50:57;95392.84;;;4.07;100.00
62103;BME280;48077;48.104;11.702;2023-04-26T01:53:20;95391.78;;;4.01;100.00
62103;BME280;48077;48.104;11.702;2023-04-26T01:55:43;95415.88;;;4.19;100.00
62103;BME280;48077;48.104;11.702;2023-04-26T01:58:07;95394.25;;;4.02;100.00
62103;BME280;48077;48.104;11.702;2023-04-26T02:00:30;95408.88;;;4.05;100.00
62103;BME280;48077;48.104;11.702;2023-04-26T02:02:54;95411.31;;;4.07;100.00
62103;BME280;48077;48.104;11.702;2023-04-26T02:05:18;95416.34;;;4.01;100.00
62103;BME280;48077;48.104;11.702;2023-04-26T02:07:41;95423.06;;;4.04;100.00
62103;BME280;48077;48.104;11.702;2023-04-26T02:10:05;95419.19;;;4.00;100.00
62103;BME280;48077;48.104;11.702;2023-04-26T02:12:28;95433.00;;;4.02;100.00
62103;BME280;48077;48.104;11.702;2023-04-26T02:14:52;95423.81;;;3.98;100.00
62103;BME280;48077;48.104;11.702;2023-04-26T02:17:15;95414.88;;;3.92;100.00
62103;BME280;48077;48.104;11.702;2023-04-26T02:19:39;95416.91;;;3.90;100.00
62103;BME280;48077;48.104;11.702;2023-04-26T02:22:04;95425.63;;;3.91;100.00
62103;BME280;48077;48.104;11.702;2023-04-26T02:24:28;95432.16;;;3.95;100.00
62103;BME280;48077;48.104;11.702;2023-04-26T02:26:52;95428.69;;;3.94;100.00
62103;BME280;48077;48.104;11.702;2023-04-26T02:29:16;95430.09;;;3.90;100.00
62103;BME280;48077;48.104;11.702;2023-04-26T02:31:40;95427.81;;;3.87;100.00
62103;BME280;48077;48.104;11.702;2023-04-26T02:34:03;95408.69;;;3.78;100.00
62103;BME280;48077;48.104;11.702;2023-04-26T02:36:26;95400.16;;;3.76;100.00
62103;BME280;48077;48.104;11.702;2023-04-26T02:38:51;95408.72;;;3.85;100.00
62103;BME280;48077;48.104;11.702;2023-04-26T02:41:14;95403.59;;;3.77;100.00
62103;BME280;48077;48.104;11.702;2023-04-26T02:43:37;95415.47;;;3.88;100.00
62103;BME280;48077;48.104;11.702;2023-04-26T02:46:01;95405.25;;;3.78;100.00
62103;BME280;48077;48.104;11.702;2023-04-26T02:48:24;95400.34;;;3.75;100.00
62103;BME280;48077;48.104;11.702;2023-04-26T02:50:48;95412.56;;;3.82;100.00
62103;BME280;48077;48.104;11.702;2023-04-26T02:53:13;95401.53;;;3.72;100.00
62103;BME280;48077;48.104;11.702;2023-04-26T02:55:38;95395.81;;;3.69;100.00
62103;BME280;48077;48.104;11.702;2023-04-26T02:58:02;95413.53;;;3.75;100.00
62103;BME280;48077;48.104;11.702;2023-04-26T03:00:28;95416.56;;;3.72;100.00
62103;BME280;48077;48.104;11.702;2023-04-26T03:02:51;95410.97;;;3.60;100.00
62103;BME280;48077;48.104;11.702;2023-04-26T03:05:15;95423.59;;;3.64;100.00
62103;BME280;48077;48.104;11.702;2023-04-26T03:07:38;95422.16;;;3.62;100.00
62103;BME280;48077;48.104;11.702;2023-04-26T03:10:02;95424.00;;;3.61;100.00
62103;BME280;48077;48.104;11.702;2023-04-26T03:12:26;95406.25;;;3.49;100.00
62103;BME280;48077;48.104;11.702;2023-04-26T03:14:50;95406.59;;;3.45;100.00
62103;BME280;48077;48.104;11.702;2023-04-26T03:17:13;95415.34;;;3.46;100.00
62103;BME280;48077;48.104;11.702;2023-04-26T03:19:37;95408.19;;;3.40;100.00
62103;BME280;48077;48.104;11.702;2023-04-26T03:22:02;95403.09;;;3.38;100.00
62103;BME280;48077;48.104;11.702;2023-04-26T03:24:26;95428.16;;;3.49;100.00
62103;BME280;48077;48.104;11.702;2023-04-26T03:26:49;95429.78;;;3.50;100.00
62103;BME280;48077;48.104;11.702;2023-04-26T03:29:13;95413.25;;;3.41;100.00
62103;BME280;48077;48.104;11.702;2023-04-26T03:31:36;95423.44;;;3.44;100.00
62103;BME280;48077;48.104;11.702;2023-04-26T03:34:00;95421.00;;;3.43;100.00
62103;BME280;48077;48.104;11.702;2023-04-26T03:36:23;95422.44;;;3.45;100.00
62103;BME280;48077;48.104;11.702;2023-04-26T03:38:48;95422.25;;;3.47;100.00
62103;BME280;48077;48.104;11.702;2023-04-26T03:41:12;95427.97;;;3.51;100.00
62103;BME280;48077;48.104;11.702;2023-04-26T03:43:35;95426.75;;;3.53;100.00
62103;BME280;48077;48.104;11.702;2023-04-26T03:45:59;95436.31;;;3.54;100.00
62103;BME280;48077;48.104;11.702;2023-04-26T03:48:23;95435.06;;;3.50;100.00
62103;BME280;48077;48.104;11.702;2023-04-26T03:50:46;95420.81;;;3.44;100.00
62103;BME280;48077;48.104;11.702;2023-04-26T03:53:10;95434.84;;;3.52;100.00
62103;BME280;48077;48.104;11.702;2023-04-26T03:55:33;95429.16;;;3.48;100.00
62103;BME280;48077;48.104;11.702;2023-04-26T03:57:57;95428.16;;;3.49;100.00
62103;BME280;48077;48.104;11.702;2023-04-26T04:00:20;95439.59;;;3.56;100.00
62103;BME280;48077;48.104;11.702;2023-04-26T04:02:45;95422.44;;;3.45;100.00
62103;BME280;48077;48.104;11.702;2023-04-26T04:05:08;95433.28;;;3.57;100.00
62103;BME280;48077;48.104;11.702;2023-04-26T04:07:32;95430.47;;;3.59;100.00
62103;BME280;48077;48.104;11.702;2023-04-26T04:09:56;95444.66;;;3.58;100.00
62103;BME280;48077;48.104;11.702;2023-04-26T04:12:19;95450.75;;;3.58;100.00
62103;BME280;48077;48.104;11.702;2023-04-26T04:14:44;95444.00;;;3.56;100.00
62103;BME280;48077;48.104;11.702;2023-04-26T04:17:08;95447.41;;;3.50;100.00
62103;BME280;48077;48.104;11.702;2023-04-26T04:19:31;95451.69;;;3.51;100.00
62103;BME280;48077;48.104;11.702;2023-04-26T04:21:55;95432.28;;;3.37;100.00
62103;BME280;48077;48.104;11.702;2023-04-26T04:24:18;95435.56;;;3.39;100.00
62103;BME280;48077;48.104;11.702;2023-04-26T04:26:42;95452.06;;;3.48;100.00
62103;BME280;48077;48.104;11.702;2023-04-26T04:29:05;95439.63;;;3.41;100.00
62103;BME280;48077;48.104;11.702;2023-04-26T04:31:31;95450.63;;;3.45;100.00
62103;BME280;48077;48.104;11.702;2023-04-26T04:33:54;95452.06;;;3.48;100.00
62103;BME280;48077;48.104;11.702;2023-04-26T04:36:18;95456.34;;;3.49;100.00
62103;BME280;48077;48.104;11.702;2023-04-26T04:38:41;95451.88;;;3.49;100.00
62103;BME280;48077;48.104;11.702;2023-04-26T04:41:07;95449.00;;;3.44;100.00
62103;BME280;48077;48.104;11.702;2023-04-26T04:43:30;95453.88;;;3.47;100.00
62103;BME280;48077;48.104;11.702;2023-04-26T04:45:57;95435.38;;;3.40;100.00
62103;BME280;48077;48.104;11.702;2023-04-26T04:48:20;95469.41;;;3.57;100.00
62103;BME280;48077;48.104;11.702;2023-04-26T04:50:44;95466.50;;;3.52;100.00
62103;BME280;48077;48.104;11.702;2023-04-26T04:53:07;95471.78;;;3.52;100.00
62103;BME280;48077;48.104;11.702;2023-04-26T04:55:35;95468.31;;;3.51;100.00
62103;BME280;48077;48.104;11.702;2023-04-26T04:57:58;95481.34;;;3.53;100.00
62103;BME280;48077;48.104;11.702;2023-04-26T05:00:22;95459.56;;;3.44;100.00
62103;BME280;48077;48.104;11.702;2023-04-26T05:02:45;95484.41;;;3.56;100.00
62103;BME280;48077;48.104;11.702;2023-04-26T05:05:09;95488.66;;;3.57;100.00
62103;BME280;48077;48.104;11.702;2023-04-26T05:07:33;95483.56;;;3.56;100.00
62103;BME280;48077;48.104;11.702;2023-04-26T05:09:57;95474.63;;;3.50;100.00
62103;BME280;48077;48.104;11.702;2023-04-26T05:12:20;95479.94;;;3.57;100.00
62103;BME280;48077;48.104;11.702;2023-04-26T05:14:43;95471.16;;;3.50;100.00
62103;BME280;48077;48.104;11.702;2023-04-26T05:17:07;95500.53;;;3.68;100.00
62103;BME280;48077;48.104;11.702;2023-04-26T05:19:30;95484.47;;;3.63;100.00
62103;BME280;48077;48.104;11.702;2023-04-26T05:21:55;95492.38;;;3.63;100.00
62103;BME280;48077;48.104;11.702;2023-04-26T05:24:19;95500.16;;;3.71;100.00
62103;BME280;48077;48.104;11.702;2023-04-26T05:26:42;95506.88;;;3.74;100.00
62103;BME280;48077;48.104;11.702;2023-04-26T05:29:08;95481.44;;;3.66;100.00
62103;BME280;48077;48.104;11.702;2023-04-26T05:31:32;95451.06;;;3.49;100.00
62103;BME280;48077;48.104;11.702;2023-04-26T05:33:55;95487.41;;;3.75;100.00
62103;BME280;48077;48.104;11.702;2023-04-26T05:36:19;95475.34;;;3.65;100.00
62103;BME280;48077;48.104;11.702;2023-04-26T05:38:43;95509.84;;;3.85;100.00
62103;BME280;48077;48.104;11.702;2023-04-26T05:41:06;95507.25;;;3.92;100.00
62103;BME280;48077;48.104;11.702;2023-04-26T05:43:30;95515.16;;;3.92;100.00
62103;BME280;48077;48.104;11.702;2023-04-26T05:45:55;95514.75;;;3.95;100.00
62103;BME280;48077;48.104;11.702;2023-04-26T05:48:22;95517.03;;;3.98;100.00
62103;BME280;48077;48.104;11.702;2023-04-26T05:50:46;95519.28;;;4.01;100.00
62103;BME280;48077;48.104;11.702;2023-04-26T05:53:10;95505.91;;;4.03;100.00
62103;BME280;48077;48.104;11.702;2023-04-26T05:55:33;95521.97;;;4.08;100.00
62103;BME280;48077;48.104;11.702;2023-04-26T05:57:57;95513.19;;;4.01;100.00
62103;BME280;48077;48.104;11.702;2023-04-26T06:00:21;95509.13;;;3.98;100.00
62103;BME280;48077;48.104;11.702;2023-04-26T06:02:45;95512.44;;;4.07;100.00
62103;BME280;48077;48.104;11.702;2023-04-26T06:05:09;95523.22;;;4.12;100.00
62103;BME280;48077;48.104;11.702;2023-04-26T06:07:32;95519.19;;;4.16;100.00
62103;BME280;48077;48.104;11.702;2023-04-26T06:09:56;95525.09;;;4.18;100.00
62103;BME280;48077;48.104;11.702;2023-04-26T06:12:19;95515.91;;;4.14;100.00
62103;BME280;48077;48.104;11.702;2023-04-26T06:14:42;95534.88;;;4.24;100.00
62103;BME280;48077;48.104;11.702;2023-04-26T06:17:06;95537.34;;;4.26;100.00
62103;BME280;48077;48.104;11.702;2023-04-26T06:19:29;95532.69;;;4.28;100.00
62103;BME280;48077;48.104;11.702;2023-04-26T06:21:53;95543.69;;;4.32;100.00
62103;BME280;48077;48.104;11.702;2023-04-26T06:24:17;95542.72;;;4.39;100.00
62103;BME280;48077;48.104;11.702;2023-04-26T06:26:40;95502.59;;;4.22;100.00
62103;BME280;48077;48.104;11.702;2023-04-26T06:29:04;95535.25;;;4.50;100.00
62103;BME280;48077;48.104;11.702;2023-04-26T06:31:28;95527.34;;;4.50;100.00
62103;BME280;48077;48.104;11.702;2023-04-26T06:33:51;95532.72;;;4.63;100.00
62103;BME280;48077;48.104;11.702;2023-04-26T06:36:14;95526.22;;;4.65;100.00
62103;BME280;48077;48.104;11.702;2023-04-26T06:38:38;95545.41;;;4.81;100.00
62103;BME280;48077;48.104;11.702;2023-04-26T06:41:01;95529.50;;;4.74;100.00
62103;BME280;48077;48.104;11.702;2023-04-26T06:43:25;95523.81;;;4.71;100.00
62103;BME280;48077;48.104;11.702;2023-04-26T06:45:51;95531.53;;;4.72;100.00
62103;BME280;48077;48.104;11.702;2023-04-26T06:48:15;95528.91;;;4.72;100.00
62103;BME280;48077;48.104;11.702;2023-04-26T06:50:38;95548.47;;;4.84;100.00
62103;BME280;48077;48.104;11.702;2023-04-26T06:53:04;95531.81;;;4.84;100.00
62103;BME280;48077;48.104;11.702;2023-04-26T06:55:28;95523.63;;;4.79;100.00
62103;BME280;48077;48.104;11.702;2023-04-26T06:57:51;95549.16;;;5.00;100.00
62103;BME280;48077;48.104;11.702;2023-04-26T07:00:15;95547.38;;;5.07;100.00
62103;BME280;48077;48.104;11.702;2023-04-26T07:02:38;95535.56;;;5.03;100.00
62103;BME280;48077;48.104;11.702;2023-04-26T07:05:01;95550.28;;;5.19;100.00
62103;BME280;48077;48.104;11.702;2023-04-26T07:07:27;95535.22;;;5.19;100.00
62103;BME280;48077;48.104;11.702;2023-04-26T07:09:51;95540.97;;;5.36;100.00
62103;BME280;48077;48.104;11.702;2023-04-26T07:12:17;95540.78;;;5.38;100.00
62103;BME280;48077;48.104;11.702;2023-04-26T07:14:40;95539.13;;;5.37;100.00
62103;BME280;48077;48.104;11.702;2023-04-26T07:17:08;95546.50;;;5.48;100.00
62103;BME280;48077;48.104;11.702;2023-04-26T07:19:32;95547.94;;;5.51;100.00
62103;BME280;48077;48.104;11.702;2023-04-26T07:21:55;95547.53;;;5.54;100.00
62103;BME280;48077;48.104;11.702;2023-04-26T07:24:18;95551.03;;;5.61;100.00
62103;BME280;48077;48.104;11.702;2023-04-26T07:26:42;95536.75;;;5.62;100.00
62103;BME280;48077;48.104;11.702;2023-04-26T07:29:05;95556.75;;;5.71;100.00
62103;BME280;48077;48.104;11.702;2023-04-26T07:31:30;95552.47;;;5.77;100.00
62103;BME280;48077;48.104;11.702;2023-04-26T07:33:54;95543.72;;;5.83;100.00
62103;BME280;48077;48.104;11.702;2023-04-26T07:36:17;95538.66;;;5.88;100.00
62103;BME280;48077;48.104;11.702;2023-04-26T07:38:41;95538.03;;;5.93;100.00
62103;BME280;48077;48.104;11.702;2023-04-26T07:41:04;95532.75;;;5.93;100.00
62103;BME280;48077;48.104;11.702;2023-04-26T07:43:29;95530.53;;;5.96;100.00
62103;BME280;48077;48.104;11.702;2023-04-26T07:45:53;95519.53;;;5.99;100.00
62103;BME280;48077;48.104;11.702;2023-04-26T07:48:16;95513.66;;;6.11;99.19
62103;BME280;48077;48.104;11.702;2023-04-26T07:50:39;95538.06;;;6.33;98.54
62103;BME280;48077;48.104;11.702;2023-04-26T07:53:03;95545.00;;;6.27;96.69
62103;BME280;48077;48.104;11.702;2023-04-26T07:55:26;95536.25;;;6.13;95.59
62103;BME280;48077;48.104;11.702;2023-04-26T07:57:49;95543.78;;;6.23;96.51
62103;BME280;48077;48.104;11.702;2023-04-26T08:00:13;95526.88;;;6.17;94.63
62103;BME280;48077;48.104;11.702;2023-04-26T08:02:38;95551.72;;;6.30;94.53
62103;BME280;48077;48.104;11.702;2023-04-26T08:05:01;95542.56;;;6.32;93.02
62103;BME280;48077;48.104;11.702;2023-04-26T08:07:25;95536.03;;;6.35;92.72
62103;BME280;48077;48.104;11.702;2023-04-26T08:09:48;95533.38;;;6.48;92.62
62103;BME280;48077;48.104;11.702;2023-04-26T08:12:12;95521.53;;;6.57;91.18
62103;BME280;48077;48.104;11.702;2023-04-26T08:14:35;95526.81;;;6.77;88.67
62103;BME280;48077;48.104;11.702;2023-04-26T08:16:59;95518.44;;;6.80;87.71
62103;BME280;48077;48.104;11.702;2023-04-26T08:19:23;95528.16;;;7.00;85.86
62103;BME280;48077;48.104;11.702;2023-04-26T08:21:48;95528.97;;;7.00;87.26
62103;BME280;48077;48.104;11.702;2023-04-26T08:24:12;95515.13;;;6.98;87.99
62103;BME280;48077;48.104;11.702;2023-04-26T08:26:35;95534.16;;;7.27;87.55
62103;BME280;48077;48.104;11.702;2023-04-26T08:28:58;95523.16;;;7.30;83.31
62103;BME280;48077;48.104;11.702;2023-04-26T08:31:22;95535.13;;;7.39;84.04
62103;BME280;48077;48.104;11.702;2023-04-26T08:33:45;95532.91;;;7.36;82.65
62103;BME280;48077;48.104;11.702;2023-04-26T08:36:11;95531.28;;;7.35;82.26
62103;BME280;48077;48.104;11.702;2023-04-26T08:38:34;95531.25;;;7.42;81.31
62103;BME280;48077;48.104;11.702;2023-04-26T08:41:01;95531.44;;;7.47;80.03
62103;BME280;48077;48.104;11.702;2023-04-26T08:43:24;95509.03;;;7.36;78.89
62103;BME280;48077;48.104;11.702;2023-04-26T08:45:49;95530.78;;;7.52;78.62
62103;BME280;48077;48.104;11.702;2023-04-26T08:48:13;95478.03;;;7.30;78.53
62103;BME280;48077;48.104;11.702;2023-04-26T08:50:39;95505.16;;;7.70;78.36
62103;BME280;48077;48.104;11.702;2023-04-26T08:53:04;95526.63;;;8.01;76.83
62103;BME280;48077;48.104;11.702;2023-04-26T08:55:28;95520.91;;;7.97;75.87
62103;BME280;48077;48.104;11.702;2023-04-26T08:57:52;95533.47;;;8.15;76.71
62103;BME280;48077;48.104;11.702;2023-04-26T09:00:17;95528.19;;;8.34;74.63
62103;BME280;48077;48.104;11.702;2023-04-26T09:02:45;95516.28;;;8.43;73.31
62103;BME280;48077;48.104;11.702;2023-04-26T09:05:09;95516.38;;;8.55;69.49
62103;BME280;48077;48.104;11.702;2023-04-26T09:08:19;95517.00;;;8.75;68.87
62103;BME280;48077;48.104;11.702;2023-04-26T09:10:24;95520.50;;;9.13;70.92
62103;BME280;48077;48.104;11.702;2023-04-26T09:12:51;95521.81;;;9.22;69.31
62103;BME280;48077;48.104;11.702;2023-04-26T09:15:15;95503.25;;;8.97;68.84
62103;BME280;48077;48.104;11.702;2023-04-26T09:17:39;95513.81;;;8.66;66.62
62103;BME280;48077;48.104;11.702;2023-04-26T09:22:46;95523.75;;;8.27;69.14
62103;BME280;48077;48.104;11.702;2023-04-26T09:25:11;95516.19;;;7.99;69.85
62103;BME280;48077;48.104;11.702;2023-04-26T09:27:37;95524.22;;;7.93;72.45
62103;BME280;48077;48.104;11.702;2023-04-26T09:30:10;95490.16;;;7.51;70.63
62103;BME280;48077;48.104;11.702;2023-04-26T09:35:47;95508.03;;;7.30;73.30
62103;BME280;48077;48.104;11.702;2023-04-26T09:38:12;95518.44;;;7.32;73.44
62103;BME280;48077;48.104;11.702;2023-04-26T09:43:11;95511.31;;;7.26;74.35
62103;BME280;48077;48.104;11.702;2023-04-26T09:48:19;95524.28;;;7.47;75.94
62103;BME280;48077;48.104;11.702;2023-04-26T09:50:49;95501.13;;;7.29;74.12
62103;BME280;48077;48.104;11.702;2023-04-26T09:53:39;95527.56;;;7.43;74.74
62103;BME280;48077;48.104;11.702;2023-04-26T09:58:32;95526.69;;;7.56;73.11
62103;BME280;48077;48.104;11.702;2023-04-26T10:00:55;95526.91;;;7.54;72.50
62103;BME280;48077;48.104;11.702;2023-04-26T10:03:21;95523.63;;;7.59;71.59
62103;BME280;48077;48.104;11.702;2023-04-26T10:05:45;95524.19;;;7.67;71.28
62103;BME280;48077;48.104;11.702;2023-04-26T10:08:09;95517.41;;;7.72;71.68
62103;BME280;48077;48.104;11.702;2023-04-26T10:10:33;95521.56;;;7.93;70.05
62103;BME280;48077;48.104;11.702;2023-04-26T10:12:57;95508.50;;;8.16;69.49
62103;BME280;48077;48.104;11.702;2023-04-26T10:15:21;95512.59;;;8.44;68.29
62103;BME280;48077;48.104;11.702;2023-04-26T10:17:44;95499.75;;;8.41;68.36
62103;BME280;48077;48.104;11.702;2023-04-26T10:20:11;95515.88;;;8.46;66.65
62103;BME280;48077;48.104;11.702;2023-04-26T10:22:56;95507.88;;;8.46;67.70
62103;BME280;48077;48.104;11.702;2023-04-26T10:25:33;95512.75;;;8.24;69.82
62103;BME280;48077;48.104;11.702;2023-04-26T10:27:56;95504.50;;;8.07;70.58
62103;BME280;48077;48.104;11.702;2023-04-26T10:30:21;95519.25;;;8.03;70.29
62103;BME280;48077;48.104;11.702;2023-04-26T10:35:15;95500.72;;;7.96;72.94
62103;BME280;48077;48.104;11.702;2023-04-26T10:40:23;95500.59;;;8.09;67.83
62103;BME280;48077;48.104;11.702;2023-04-26T10:42:46;95510.41;;;8.34;66.17
62103;BME280;48077;48.104;11.702;2023-04-26T10:45:26;95494.91;;;8.75;64.74
62103;BME280;48077;48.104;11.702;2023-04-26T10:48:14;95497.47;;;9.18;65.02
62103;BME280;48077;48.104;11.702;2023-04-26T10:53:31;95478.53;;;9.87;63.07
62103;BME280;48077;48.104;11.702;2023-04-26T10:55:55;95469.44;;;10.06;59.91
62103;BME280;48077;48.104;11.702;2023-04-26T10:58:30;95471.53;;;10.28;59.15
62103;BME280;48077;48.104;11.702;2023-04-26T11:03:30;95475.81;;;10.76;56.97
62103;BME280;48077;48.104;11.702;2023-04-26T11:05:54;95441.25;;;10.81;56.24
62103;BME280;48077;48.104;11.702;2023-04-26T11:08:19;95441.59;;;10.85;54.92
62103;BME280;48077;48.104;11.702;2023-04-26T11:13:31;95432.59;;;11.14;55.73
62103;BME280;48077;48.104;11.702;2023-04-26T11:15:59;95451.00;;;11.57;54.57
62103;BME280;48077;48.104;11.702;2023-04-26T11:18:26;95423.16;;;11.69;51.06
62103;BME280;48077;48.104;11.702;2023-04-26T11:20:51;95438.09;;;11.99;51.07
62103;BME280;48077;48.104;11.702;2023-04-26T11:23:17;95404.50;;;12.03;50.31
62103;BME280;48077;48.104;11.702;2023-04-26T11:25:40;95419.88;;;12.30;50.43
62103;BME280;48077;48.104;11.702;2023-04-26T11:28:04;95431.56;;;12.63;50.14
62103;BME280;48077;48.104;11.702;2023-04-26T11:30:30;95434.50;;;12.83;48.56
62103;BME280;48077;48.104;11.702;2023-04-26T11:32:54;95404.88;;;12.46;47.78
62103;BME280;48077;48.104;11.702;2023-04-26T11:35:17;95431.09;;;12.49;48.66
62103;BME280;48077;48.104;11.702;2023-04-26T11:37:44;95418.84;;;12.92;48.64
62103;BME280;48077;48.104;11.702;2023-04-26T11:40:09;95421.75;;;13.12;46.95
62103;BME280;48077;48.104;11.702;2023-04-26T11:42:33;95413.28;;;12.54;47.66
62103;BME280;48077;48.104;11.702;2023-04-26T11:44:56;95411.59;;;12.14;51.55
62103;BME280;48077;48.104;11.702;2023-04-26T11:47:21;95417.25;;;11.84;51.52
62103;BME280;48077;48.104;11.702;2023-04-26T11:49:48;95426.38;;;11.54;53.16
62103;BME280;48077;48.104;11.702;2023-04-26T11:52:12;95426.19;;;11.44;51.54
62103;BME280;48077;48.104;11.702;2023-04-26T11:54:36;95409.56;;;11.25;51.19
62103;BME280;48077;48.104;11.702;2023-04-26T11:57:00;95426.56;;;11.36;50.72
62103;BME280;48077;48.104;11.702;2023-04-26T11:59:29;95421.00;;;11.38;51.10
62103;BME280;48077;48.104;11.702;2023-04-26T12:01:55;95434.00;;;11.34;51.19
62103;BME280;48077;48.104;11.702;2023-04-26T12:04:18;95429.84;;;11.55;50.55
62103;BME280;48077;48.104;11.702;2023-04-26T12:06:43;95422.00;;;11.20;51.88
62103;BME280;48077;48.104;11.702;2023-04-26T12:09:08;95442.63;;;11.24;54.80
62103;BME280;48077;48.104;11.702;2023-04-26T12:11:31;95436.66;;;11.05;54.27
62103;BME280;48077;48.104;11.702;2023-04-26T12:13:57;95427.81;;;10.76;56.02
62103;BME280;48077;48.104;11.702;2023-04-26T12:16:21;95435.94;;;10.69;55.37
62103;BME280;48077;48.104;11.702;2023-04-26T12:18:49;95426.91;;;10.35;55.67
62103;BME280;48077;48.104;11.702;2023-04-26T12:21:14;95442.31;;;10.21;55.84
62103;BME280;48077;48.104;11.702;2023-04-26T12:23:38;95440.81;;;10.25;58.69
62103;BME280;48077;48.104;11.702;2023-04-26T12:26:05;95440.81;;;10.25;57.73
62103;BME280;48077;48.104;11.702;2023-04-26T12:28:29;95435.81;;;10.29;57.56
62103;BME280;48077;48.104;11.702;2023-04-26T12:30:52;95430.66;;;10.98;54.92
62103;BME280;48077;48.104;11.702;2023-04-26T12:33:16;95426.69;;;12.04;52.53
62103;BME280;48077;48.104;11.702;2023-04-26T12:35:41;95432.31;;;12.41;50.33
62103;BME280;48077;48.104;11.702;2023-04-26T12:38:05;95425.44;;;12.45;50.17
62103;BME280;48077;48.104;11.702;2023-04-26T12:40:28;95421.91;;;12.40;48.72
62103;BME280;48077;48.104;11.702;2023-04-26T12:42:53;95407.63;;;12.73;46.34
62103;BME280;48077;48.104;11.702;2023-04-26T12:45:18;95421.75;;;12.90;47.41
62103;BME280;48077;48.104;11.702;2023-04-26T12:47:41;95409.91;;;12.25;46.57
62103;BME280;48077;48.104;11.702;2023-04-26T12:50:08;95418.16;;;11.73;50.41
62103;BME280;48077;48.104;11.702;2023-04-26T12:52:34;95421.34;;;11.58;55.19
62103;BME280;48077;48.104;11.702;2023-04-26T12:54:57;95411.78;;;11.17;53.79
62103;BME280;48077;48.104;11.702;2023-04-26T12:57:21;95428.50;;;11.12;51.33
62103;BME280;48077;48.104;11.702;2023-04-26T12:59:44;95424.63;;;10.91;53.47
62103;BME280;48077;48.104;11.702;2023-04-26T13:02:08;95413.66;;;10.76;52.62
62103;BME280;48077;48.104;11.702;2023-04-26T13:04:33;95420.25;;;10.85;52.60
62103;BME280;48077;48.104;11.702;2023-04-26T13:06:56;95401.56;;;11.71;49.09
62103;BME280;48077;48.104;11.702;2023-04-26T13:09:20;95413.22;;;12.32;47.99